Time;durP1;ratioP1;P1;durP2;ratioP2;P2;SDS_P1;SDS_P2;PMS_P1;PMS_P2;Temp;Humidity;BMP_temperature;BMP_pressure;BME280_temperature;BME280_humidity;BME280_pressure;Samples;Min_cycle;Max_cycle;Signal;HPM_P1;HPM_P2
2022/01/08 00:02:15;;;;;;;;;;;;;;;4.56;70.32;100737.81;5150813;27;53434;-78
2022/01/08 00:04:40;;;;;;;;;;;;;;;4.60;70.97;100745.50;5151638;27;26888;-79
2022/01/08 00:07:05;;;;;;;;;;;;;;;4.66;71.24;100740.34;5149406;27;56234;-78
2022/01/08 00:09:32;;;;;;;;;;;;;;;4.74;70.80;100743.75;5148224;27;54163;-78
2022/01/08 00:11:58;;;;;;;;;;;;;;;4.81;70.38;100742.00;5146649;27;27504;-78
2022/01/08 00:14:24;;;;;;;;;;;;;;;4.90;71.03;100747.13;5144600;27;26904;-79
2022/01/08 00:16:50;;;;;;;;;;;;;;;4.96;70.74;100753.91;5141583;27;27067;-78
2022/01/08 00:19:15;;;;;;;;;;;;;;;5.00;70.84;100750.50;5141494;27;26970;-79
2022/01/08 00:21:40;;;;;;;;;;;;;;;5.05;70.21;100753.91;5140817;27;57233;-79
2022/01/08 00:24:07;;;;;;;;;;;;;;;5.08;70.10;100759.00;5143147;27;27019;-78
2022/01/08 00:26:32;;;;;;;;;;;;;;;5.10;70.20;100762.44;5149548;27;26779;-78
2022/01/08 00:28:59;;;;;;;;;;;;;;;5.12;70.71;100758.13;5147914;27;26443;-79
2022/01/08 00:31:24;;;;;;;;;;;;;;;5.14;70.25;100758.97;5140971;27;27381;-78
2022/01/08 00:33:49;;;;;;;;;;;;;;;5.19;70.38;100752.13;5140487;27;54568;-78
2022/01/08 00:36:14;;;;;;;;;;;;;;;5.24;70.56;100750.41;5147274;27;52121;-78
2022/01/08 00:38:39;;;;;;;;;;;;;;;5.29;70.18;100740.97;5129275;27;26848;-78
2022/01/08 00:41:05;;;;;;;;;;;;;;;5.35;70.80;100733.28;5148078;27;26814;-78
2022/01/08 00:43:30;;;;;;;;;;;;;;;5.40;70.16;100731.53;5129189;27;27002;-78
2022/01/08 00:45:55;;;;;;;;;;;;;;;5.43;70.42;100723.88;5144267;27;46326;-79
2022/01/08 00:48:20;;;;;;;;;;;;;;;5.44;70.31;100717.84;5128006;27;26554;-80
2022/01/08 00:50:45;;;;;;;;;;;;;;;5.38;69.38;100733.28;5140969;27;26775;-79
2022/01/08 00:53:11;;;;;;;;;;;;;;;5.28;69.84;100717.13;5140219;27;52854;-80
2022/01/08 00:55:36;;;;;;;;;;;;;;;5.17;69.45;100723.13;5140169;27;41846;-79
2022/01/08 00:58:01;;;;;;;;;;;;;;;5.05;69.84;100728.31;5141027;27;26906;-79
2022/01/08 01:00:26;;;;;;;;;;;;;;;4.96;69.33;100738.56;5144796;27;42634;-79
2022/01/08 01:02:53;;;;;;;;;;;;;;;4.83;69.61;100732.66;5146977;27;27018;-78
2022/01/08 01:05:19;;;;;;;;;;;;;;;4.73;69.31;100736.06;5143107;27;26963;-79
2022/01/08 01:07:44;;;;;;;;;;;;;;;4.65;68.80;100728.41;5140611;27;26942;-79
2022/01/08 01:10:10;;;;;;;;;;;;;;;4.56;69.23;100723.31;5143524;27;28000;-79
2022/01/08 01:12:35;;;;;;;;;;;;;;;4.48;68.95;100725.03;5146275;27;27020;-79
2022/01/08 01:15:00;;;;;;;;;;;;;;;4.42;69.80;100725.06;5151939;27;26865;-78
2022/01/08 01:17:27;;;;;;;;;;;;;;;4.32;69.81;100723.34;5151402;27;26962;-79
2022/01/08 01:19:52;;;;;;;;;;;;;;;4.23;69.55;100723.38;5145962;27;26821;-80
2022/01/08 01:22:20;;;;;;;;;;;;;;;4.22;69.99;100731.88;5141387;27;26942;-79
2022/01/08 01:24:47;;;;;;;;;;;;;;;4.18;70.05;100735.28;5140362;27;26957;-79
2022/01/08 01:30:14;;;;;;;;;;;;;;;4.12;69.86;100725.09;5140339;27;26808;-78
2022/01/08 01:46:59;;;;;;;;;;;;;;;;;;;;;
2022/01/08 01:49:06;;;;;;;;;;;;;;;3.77;70.79;100738.69;5141827;27;26746;-78
2022/01/08 01:51:31;;;;;;;;;;;;;;;3.73;70.66;100742.06;5147453;27;27714;-78
2022/01/08 01:53:56;;;;;;;;;;;;;;;3.70;70.19;100742.06;5147780;27;26579;-78
2022/01/08 01:56:22;;;;;;;;;;;;;;;3.66;70.58;100737.81;5150349;27;27118;-78
2022/01/08 01:58:47;;;;;;;;;;;;;;;3.62;70.55;100742.91;5151940;27;26944;-78
2022/01/08 02:01:13;;;;;;;;;;;;;;;3.59;71.17;100742.91;5153891;27;27732;-78
2022/01/08 02:03:39;;;;;;;;;;;;;;;3.57;71.32;100735.22;5150283;27;26865;-78
2022/01/08 02:06:04;;;;;;;;;;;;;;;3.55;70.30;100742.03;5146119;27;26900;-78
2022/01/08 02:08:29;;;;;;;;;;;;;;;3.52;70.07;100734.38;5145528;27;26929;-78
2022/01/08 02:10:55;;;;;;;;;;;;;;;3.51;70.65;100745.44;5140505;27;39783;-79
2022/01/08 02:13:24;;;;;;;;;;;;;;;3.49;70.61;100742.00;5139581;27;49840;-79
2022/01/08 02:15:52;;;;;;;;;;;;;;;3.48;70.73;100742.88;5146595;27;26844;-78
2022/01/08 02:18:18;;;;;;;;;;;;;;;3.46;70.70;100734.34;5147101;27;26961;-78
2022/01/08 02:20:44;;;;;;;;;;;;;;;3.46;71.38;100742.00;5140721;27;28334;-78
2022/01/08 02:23:09;;;;;;;;;;;;;;;3.45;70.92;100740.28;5139982;27;26821;-79
2022/01/08 02:25:34;;;;;;;;;;;;;;;3.44;70.48;100738.59;5139904;27;26804;-79
2022/01/08 02:28:03;;;;;;;;;;;;;;;3.43;70.87;100731.78;5139328;27;36991;-79
2022/01/08 02:30:28;;;;;;;;;;;;;;;3.42;70.57;100725.81;5146890;27;27728;-78
2022/01/08 02:32:53;;;;;;;;;;;;;;;3.29;70.45;100702.84;5147510;27;54745;-79
2022/01/08 02:35:21;;;;;;;;;;;;;;;3.43;70.16;100716.47;5142989;27;27020;-78
2022/01/08 02:37:47;;;;;;;;;;;;;;;3.41;70.14;100711.34;5140612;27;26831;-78
2022/01/08 02:40:12;;;;;;;;;;;;;;;3.37;70.33;100706.25;5141906;27;40723;-78
2022/01/08 02:42:48;;;;;;;;;;;;;;;3.34;70.24;100711.34;5125135;27;27114;-78
2022/01/08 02:45:13;;;;;;;;;;;;;;;3.31;70.49;100701.13;5145825;27;27569;-78
2022/01/08 02:47:38;;;;;;;;;;;;;;;3.29;70.83;100710.47;5147839;27;26838;-79
2022/01/08 02:50:04;;;;;;;;;;;;;;;3.27;70.52;100710.47;5145148;27;57470;-78
2022/01/08 02:52:29;;;;;;;;;;;;;;;3.24;71.89;100709.59;5145207;27;26945;-78
2022/01/08 02:54:54;;;;;;;;;;;;;;;3.22;71.31;100711.31;5144189;27;56051;-78
2022/01/08 02:57:19;;;;;;;;;;;;;;;3.18;71.64;100719.81;5144416;27;26796;-78
2022/01/08 02:59:45;;;;;;;;;;;;;;;3.17;70.90;100713.00;5141966;27;26986;-79
2022/01/08 03:02:10;;;;;;;;;;;;;;;3.16;71.18;100717.25;5139239;27;26743;-79
2022/01/08 03:04:36;;;;;;;;;;;;;;;3.14;71.36;100716.41;5138278;27;40892;-79
2022/01/08 03:07:01;;;;;;;;;;;;;;;3.12;72.01;100723.16;5139808;27;26832;-79
2022/01/08 03:09:27;;;;;;;;;;;;;;;3.10;71.10;100721.47;5139069;27;27665;-79
2022/01/08 03:11:52;;;;;;;;;;;;;;;3.09;72.05;100724.88;5139265;27;26990;-79
2022/01/08 03:14:17;;;;;;;;;;;;;;;3.07;71.74;100726.56;5139505;27;50554;-78
2022/01/08 03:16:42;;;;;;;;;;;;;;;3.06;71.85;100729.97;5143557;27;54546;-78
2022/01/08 03:19:12;;;;;;;;;;;;;;;3.08;71.67;100723.16;5143669;27;26980;-79
2022/01/08 03:21:42;;;;;;;;;;;;;;;3.09;71.81;100714.66;5139547;27;26861;-80
2022/01/08 03:24:09;;;;;;;;;;;;;;;3.10;71.03;100712.13;5140712;27;26866;-79
2022/01/08 03:26:35;;;;;;;;;;;;;;;3.11;70.96;100712.97;5146206;27;26878;-79
2022/01/08 03:29:00;;;;;;;;;;;;;;;3.12;71.31;100722.31;5145547;27;27994;-79
2022/01/08 03:31:26;;;;;;;;;;;;;;;3.11;71.09;100728.28;5146787;27;26968;-78
2022/01/08 03:33:52;;;;;;;;;;;;;;;3.11;71.60;100734.22;5145854;27;26944;-79
2022/01/08 03:36:18;;;;;;;;;;;;;;;3.11;71.25;100728.28;5145462;27;26827;-78
2022/01/08 03:38:43;;;;;;;;;;;;;;;3.10;71.29;100729.13;5144951;27;26895;-79
2022/01/08 03:41:09;;;;;;;;;;;;;;;3.12;70.96;100729.97;5140553;27;26664;-79
2022/01/08 03:43:35;;;;;;;;;;;;;;;3.12;71.16;100735.06;5142682;27;26890;-79
2022/01/08 03:46:03;;;;;;;;;;;;;;;3.11;70.78;100723.19;5156620;27;26901;-79
2022/01/08 03:48:32;;;;;;;;;;;;;;;3.11;71.07;100723.19;5150785;27;28462;-78
2022/01/08 03:50:58;;;;;;;;;;;;;;;3.10;70.95;100731.69;5148708;27;26888;-79
2022/01/08 03:53:24;;;;;;;;;;;;;;;3.09;70.83;100735.06;5151818;27;27052;-79
2022/01/08 03:55:49;;;;;;;;;;;;;;;3.08;70.53;100735.91;5143728;27;26784;-78
2022/01/08 03:58:14;;;;;;;;;;;;;;;3.05;70.77;100748.66;5142903;27;27937;-79
2022/01/08 04:00:39;;;;;;;;;;;;;;;3.04;71.25;100742.69;5148054;27;26934;-78
2022/01/08 04:03:05;;;;;;;;;;;;;;;3.02;71.29;100744.41;5148437;27;27975;-78
2022/01/08 04:05:30;;;;;;;;;;;;;;;3.04;70.84;100741.88;5144075;27;26392;-79
2022/01/08 04:07:55;;;;;;;;;;;;;;;3.07;71.13;100744.44;5141357;27;45770;-79
2022/01/08 04:10:20;;;;;;;;;;;;;;;3.13;71.46;100744.44;5144499;27;37224;-78
2022/01/08 04:12:50;;;;;;;;;;;;;;;3.19;72.14;100747.88;5151050;27;26935;-79
2022/01/08 04:17:47;;;;;;;;;;;;;;;3.37;71.72;100752.19;5138231;27;26733;-79
2022/01/08 04:20:12;;;;;;;;;;;;;;;3.46;71.53;100747.09;5144811;27;27002;-79
2022/01/08 04:22:37;;;;;;;;;;;;;;;3.54;71.31;100750.53;5146266;27;27045;-79
2022/01/08 04:25:03;;;;;;;;;;;;;;;3.59;71.52;100748.00;5142511;27;35032;-79
2022/01/08 04:27:28;;;;;;;;;;;;;;;3.63;70.85;100760.78;5142010;27;26769;-79
2022/01/08 04:29:53;;;;;;;;;;;;;;;3.63;71.14;100755.69;5144871;27;26780;-78
2022/01/08 04:32:18;;;;;;;;;;;;;;;3.65;71.41;100765.88;5145626;27;55832;-78
2022/01/08 04:34:43;;;;;;;;;;;;;;;3.66;71.33;100771.00;5146886;27;45361;-79
2022/01/08 04:37:09;;;;;;;;;;;;;;;3.68;71.04;100769.28;5145917;27;56307;-78
2022/01/08 04:39:34;;;;;;;;;;;;;;;3.68;71.03;100774.41;5147512;27;48176;-78
2022/01/08 04:41:59;;;;;;;;;;;;;;;3.67;70.69;100772.72;5147885;27;48939;-78
2022/01/08 04:44:24;;;;;;;;;;;;;;;3.66;71.15;100768.47;5145746;27;53788;-79
2022/01/08 04:46:49;;;;;;;;;;;;;;;3.62;70.83;100764.19;5150990;27;26938;-79
2022/01/08 04:49:14;;;;;;;;;;;;;;;3.58;70.98;100765.03;5145408;27;26934;-78
2022/01/08 04:51:40;;;;;;;;;;;;;;;3.52;71.28;100767.56;5145778;27;31201;-78
2022/01/08 04:54:05;;;;;;;;;;;;;;;3.47;70.57;100764.13;5144445;27;44897;-79
2022/01/08 04:56:30;;;;;;;;;;;;;;;3.39;70.71;100776.03;5140449;27;51221;-78
2022/01/08 04:58:55;;;;;;;;;;;;;;;3.32;70.47;100770.03;5142605;27;26856;-79
2022/01/08 05:01:21;;;;;;;;;;;;;;;3.28;70.76;100772.56;5147954;27;56699;-79
2022/01/08 05:03:46;;;;;;;;;;;;;;;3.24;70.63;100765.75;5143120;27;26858;-78
2022/01/08 05:06:13;;;;;;;;;;;;;;;3.21;70.97;100775.94;5144321;27;56288;-78
2022/01/08 05:08:39;;;;;;;;;;;;;;;3.16;70.48;100783.59;5145106;27;27020;-78
2022/01/08 05:11:04;;;;;;;;;;;;;;;3.12;70.47;100786.09;5140416;27;26793;-79
2022/01/08 05:13:29;;;;;;;;;;;;;;;3.04;71.67;100785.25;5141061;27;27223;-79
2022/01/08 05:15:55;;;;;;;;;;;;;;;2.98;70.96;100777.53;5141048;27;27166;-79
2022/01/08 05:18:22;;;;;;;;;;;;;;;2.92;70.99;100779.19;5141733;27;26886;-79
2022/01/08 05:20:55;;;;;;;;;;;;;;;2.90;70.99;100785.16;5141807;27;26771;-79
2022/01/08 05:23:21;;;;;;;;;;;;;;;2.89;71.14;100779.19;5142040;27;26747;-79
2022/01/08 05:25:46;;;;;;;;;;;;;;;2.89;70.79;100775.78;5141248;27;26760;-79
2022/01/08 05:28:11;;;;;;;;;;;;;;;2.89;71.15;100776.63;5141228;27;27040;-79
2022/01/08 05:30:36;;;;;;;;;;;;;;;2.88;70.90;100777.50;5145272;27;26915;-79
2022/01/08 05:33:02;;;;;;;;;;;;;;;2.88;70.94;100777.50;5146345;27;26867;-78
2022/01/08 05:35:28;;;;;;;;;;;;;;;2.86;70.96;100779.19;5148577;27;27038;-79
2022/01/08 05:37:53;;;;;;;;;;;;;;;2.85;70.94;100787.66;5148192;27;27050;-78
2022/01/08 05:40:19;;;;;;;;;;;;;;;2.81;70.94;100780.84;5151583;27;26783;-79
2022/01/08 05:42:44;;;;;;;;;;;;;;;2.80;70.67;100779.16;5150162;27;26740;-79
2022/01/08 05:45:10;;;;;;;;;;;;;;;2.80;71.05;100778.28;5143467;27;26915;-79
2022/01/08 05:47:35;;;;;;;;;;;;;;;2.79;70.79;100781.69;5140665;27;26760;-79
2022/01/08 05:50:01;;;;;;;;;;;;;;;2.78;71.16;100780.81;5143962;27;26873;-78
2022/01/08 05:52:26;;;;;;;;;;;;;;;2.78;71.12;100780.81;5146018;27;27126;-78
2022/01/08 05:54:51;;;;;;;;;;;;;;;2.79;70.84;100782.53;5147720;27;27074;-78
2022/01/08 05:57:16;;;;;;;;;;;;;;;2.79;70.73;100782.53;5147386;27;55258;-79
2022/01/08 05:59:41;;;;;;;;;;;;;;;2.81;70.73;100796.13;5143170;27;54318;-79
2022/01/08 06:02:09;;;;;;;;;;;;;;;2.82;70.80;100792.75;5140438;27;26824;-79
2022/01/08 06:04:34;;;;;;;;;;;;;;;2.83;71.33;100794.47;5141177;27;26896;-78
2022/01/08 06:06:59;;;;;;;;;;;;;;;2.82;70.68;100795.31;5144555;27;26753;-79
2022/01/08 06:09:25;;;;;;;;;;;;;;;2.80;70.65;100794.44;5141953;27;56070;-79
2022/01/08 06:11:50;;;;;;;;;;;;;;;2.80;70.43;100809.75;5141110;27;27099;-79
2022/01/08 06:14:15;;;;;;;;;;;;;;;2.77;70.67;100809.75;5140013;27;56311;-79
2022/01/08 06:16:40;;;;;;;;;;;;;;;2.75;70.67;100811.41;5149746;27;26914;-79
2022/01/08 06:19:07;;;;;;;;;;;;;;;2.75;70.81;100811.41;5142823;27;26816;-79
2022/01/08 06:21:32;;;;;;;;;;;;;;;2.74;70.84;100814.78;5140972;27;26942;-79
2022/01/08 06:23:57;;;;;;;;;;;;;;;2.70;70.96;100812.25;5140775;27;27034;-78
2022/01/08 06:26:23;;;;;;;;;;;;;;;2.72;70.79;100820.72;5140296;27;26925;-78
2022/01/08 06:28:49;;;;;;;;;;;;;;;2.72;71.02;100816.50;5139549;27;27590;-78
2022/01/08 06:31:14;;;;;;;;;;;;;;;2.71;70.90;100819.88;5121550;27;26807;-78
2022/01/08 06:33:39;;;;;;;;;;;;;;;2.70;71.16;100818.16;5140288;27;26728;-80
2022/01/08 06:36:06;;;;;;;;;;;;;;;2.69;70.82;100821.56;5139046;27;54158;-77
2022/01/08 06:38:31;;;;;;;;;;;;;;;2.65;70.94;100812.19;5139306;27;26811;-78
2022/01/08 06:40:56;;;;;;;;;;;;;;;2.63;71.05;100821.50;5139167;27;27068;-81
2022/01/08 06:43:21;;;;;;;;;;;;;;;2.60;71.02;100821.50;5138202;27;56571;-78
2022/01/08 06:45:46;;;;;;;;;;;;;;;2.60;71.08;100816.41;5139881;27;54490;-78
2022/01/08 06:48:12;;;;;;;;;;;;;;;2.61;70.99;100820.66;5138625;27;56246;-78
2022/01/08 06:50:37;;;;;;;;;;;;;;;2.62;71.11;100830.03;5141173;27;53499;-77
2022/01/08 06:53:02;;;;;;;;;;;;;;;2.62;71.01;100830.03;5141270;27;47404;-78
2022/01/08 06:55:27;;;;;;;;;;;;;;;2.60;71.34;100831.69;5140556;27;27063;-78
2022/01/08 06:57:54;;;;;;;;;;;;;;;2.62;71.21;100834.28;5139483;27;26932;-78
2022/01/08 07:00:20;;;;;;;;;;;;;;;2.60;71.37;100836.78;5149306;27;26803;-79
2022/01/08 07:02:45;;;;;;;;;;;;;;;2.60;71.24;100835.94;5146122;27;26878;-78
2022/01/08 07:05:10;;;;;;;;;;;;;;;2.60;71.28;100841.03;5141841;27;26886;-78
2022/01/08 07:07:35;;;;;;;;;;;;;;;2.58;71.42;100843.59;5139226;27;26842;-78
2022/01/08 07:10:00;;;;;;;;;;;;;;;2.58;71.53;100838.50;5141826;27;54252;-78
2022/01/08 07:12:25;;;;;;;;;;;;;;;2.57;71.48;100836.78;5144198;27;47467;-78
2022/01/08 07:14:51;;;;;;;;;;;;;;;2.57;71.47;100834.22;5143698;27;54143;-78
2022/01/08 07:17:16;;;;;;;;;;;;;;;2.59;72.10;100834.25;5145195;27;57476;-77
2022/01/08 07:19:41;;;;;;;;;;;;;;;2.58;71.54;100828.28;5145933;27;54042;-77
2022/01/08 07:22:06;;;;;;;;;;;;;;;2.60;71.02;100831.69;5145605;27;31293;-78
2022/01/08 07:24:31;;;;;;;;;;;;;;;2.61;71.08;100833.41;5146855;27;54179;-77
2022/01/08 07:26:57;;;;;;;;;;;;;;;2.63;71.19;100836.81;5147318;27;39573;-77
2022/01/08 07:29:22;;;;;;;;;;;;;;;2.62;71.78;100842.78;5146771;27;26950;-78
2022/01/08 07:31:47;;;;;;;;;;;;;;;2.50;71.33;100809.53;5149524;27;56756;-80
2022/01/08 07:34:12;;;;;;;;;;;;;;;2.63;71.25;100844.47;5150217;27;32738;-79
2022/01/08 07:36:37;;;;;;;;;;;;;;;2.62;71.10;100841.91;5148395;27;57628;-79
2022/01/08 07:39:02;;;;;;;;;;;;;;;2.61;71.97;100843.59;5147751;27;37814;-79
2022/01/08 07:41:27;;;;;;;;;;;;;;;2.62;71.39;100835.13;5141689;27;56083;-80
2022/01/08 07:43:54;;;;;;;;;;;;;;;2.61;71.70;100843.59;5141971;27;55137;-79
2022/01/08 07:46:19;;;;;;;;;;;;;;;2.63;72.74;100847.00;5147182;27;27030;-79
2022/01/08 07:48:44;;;;;;;;;;;;;;;2.67;71.45;100853.84;5145483;27;37793;-80
2022/01/08 07:51:09;;;;;;;;;;;;;;;2.68;71.98;100853.00;5142793;27;26732;-80
2022/01/08 07:53:35;;;;;;;;;;;;;;;2.69;71.85;100849.63;5145778;27;26829;-79
2022/01/08 07:56:00;;;;;;;;;;;;;;;2.72;71.71;100852.19;5142632;27;26824;-80
2022/01/08 07:58:25;;;;;;;;;;;;;;;2.77;71.78;100855.63;5144897;27;33651;-80
2022/01/08 08:00:51;;;;;;;;;;;;;;;2.81;72.06;100862.44;5142607;27;27111;-80
2022/01/08 08:03:18;;;;;;;;;;;;;;;2.82;71.70;100848.84;5142340;27;27044;-80
2022/01/08 08:05:45;;;;;;;;;;;;;;;2.87;72.09;100847.19;5143552;27;26933;-79
2022/01/08 08:08:13;;;;;;;;;;;;;;;2.93;71.80;100851.47;5146744;27;26989;-80
2022/01/08 08:10:38;;;;;;;;;;;;;;;2.98;71.66;100848.97;5142985;27;26842;-78
2022/01/08 08:13:03;;;;;;;;;;;;;;;3.00;72.00;100839.63;5141195;27;53729;-78
2022/01/08 08:15:28;;;;;;;;;;;;;;;3.04;71.27;100838.81;5141900;27;57479;-77
2022/01/08 08:17:54;;;;;;;;;;;;;;;3.05;71.96;100830.28;5143655;27;26807;-77
2022/01/08 08:20:19;;;;;;;;;;;;;;;3.04;71.54;100833.72;5143785;27;52168;-77
2022/01/08 08:22:44;;;;;;;;;;;;;;;3.05;71.28;100830.28;5143178;27;52742;-77
2022/01/08 08:25:10;;;;;;;;;;;;;;;3.04;71.34;100823.50;5143258;27;26720;-80
2022/01/08 08:27:35;;;;;;;;;;;;;;;3.05;71.49;100814.97;5141277;27;27076;-81
2022/01/08 08:30:00;;;;;;;;;;;;;;;3.05;71.60;100825.19;5142478;27;27145;-80
2022/01/08 08:32:26;;;;;;;;;;;;;;;3.05;71.80;100831.16;5141718;27;50526;-81
2022/01/08 08:34:51;;;;;;;;;;;;;;;3.07;71.44;100823.53;5142090;27;43037;-80
2022/01/08 08:37:16;;;;;;;;;;;;;;;3.07;71.38;100818.41;5141540;27;26938;-78
2022/01/08 08:39:42;;;;;;;;;;;;;;;3.08;71.60;100809.91;5141395;27;27640;-81
2022/01/08 08:42:07;;;;;;;;;;;;;;;3.09;71.53;100806.50;5140846;27;54985;-80
2022/01/08 08:44:32;;;;;;;;;;;;;;;3.12;71.36;100806.50;5145845;27;26807;-78
2022/01/08 08:46:57;;;;;;;;;;;;;;;3.14;71.74;100804.84;5154240;27;26843;-78
2022/01/08 08:49:22;;;;;;;;;;;;;;;3.15;71.59;100801.44;5152837;27;49179;-78
2022/01/08 08:51:48;;;;;;;;;;;;;;;3.18;71.42;100801.47;5145637;27;26866;-78
2022/01/08 08:54:13;;;;;;;;;;;;;;;3.23;71.61;100794.66;5144864;27;27027;-78
2022/01/08 08:56:38;;;;;;;;;;;;;;;3.26;71.58;100790.41;5141520;27;40117;-79
2022/01/08 08:59:04;;;;;;;;;;;;;;;3.31;72.46;100787.91;5142725;27;27088;-79
2022/01/08 09:01:29;;;;;;;;;;;;;;;3.35;72.11;100782.81;5142071;27;26844;-79
2022/01/08 09:03:54;;;;;;;;;;;;;;;3.43;71.96;100782.84;5142287;27;27513;-78
2022/01/08 09:06:20;;;;;;;;;;;;;;;3.48;71.80;100786.28;5141267;27;27003;-79
2022/01/08 09:08:45;;;;;;;;;;;;;;;3.55;72.11;100777.78;5142168;27;27094;-78
2022/01/08 09:11:10;;;;;;;;;;;;;;;3.63;72.40;100783.78;5144563;27;26908;-78
2022/01/08 09:13:36;;;;;;;;;;;;;;;3.72;72.33;100788.03;5146153;27;26774;-78
2022/01/08 09:16:01;;;;;;;;;;;;;;;3.80;72.04;100784.66;5145569;27;26751;-78
2022/01/08 09:18:27;;;;;;;;;;;;;;;3.86;71.80;100784.66;5143557;27;43824;-78
2022/01/08 09:20:52;;;;;;;;;;;;;;;3.94;72.12;100788.94;5144536;27;26811;-78
2022/01/08 09:23:17;;;;;;;;;;;;;;;4.03;72.09;100791.50;5144408;27;26751;-78
2022/01/08 09:25:42;;;;;;;;;;;;;;;4.05;72.39;100794.94;5143701;27;26936;-78
2022/01/08 09:28:07;;;;;;;;;;;;;;;4.12;72.05;100794.94;5143232;27;26733;-77
2022/01/08 09:30:33;;;;;;;;;;;;;;;4.14;72.53;100789.81;5143401;27;26879;-78
2022/01/08 09:33:02;;;;;;;;;;;;;;;4.17;72.31;100789.81;5142850;27;27444;-77
2022/01/08 09:35:27;;;;;;;;;;;;;;;4.21;71.46;100786.41;5144553;27;26624;-80
2022/01/08 09:37:53;;;;;;;;;;;;;;;4.23;72.14;100780.47;5144715;27;27004;-79
2022/01/08 09:40:19;;;;;;;;;;;;;;;4.27;72.20;100781.31;5147985;27;26858;-78
2022/01/08 09:42:45;;;;;;;;;;;;;;;4.32;72.66;100784.69;5145941;27;26971;-79
2022/01/08 09:45:10;;;;;;;;;;;;;;;4.39;72.28;100788.97;5143853;27;26884;-80
2022/01/08 09:47:36;;;;;;;;;;;;;;;4.49;72.07;100794.94;5142808;27;27405;-79
2022/01/08 09:50:02;;;;;;;;;;;;;;;4.57;72.54;100780.44;5143917;27;26914;-79
2022/01/08 09:52:29;;;;;;;;;;;;;;;4.62;72.37;100784.69;5143740;27;27451;-79
2022/01/08 09:54:55;;;;;;;;;;;;;;;4.67;72.17;100772.75;5143982;27;26997;-79
2022/01/08 09:57:21;;;;;;;;;;;;;;;4.71;71.81;100769.34;5144646;27;26904;-78
2022/01/08 09:59:46;;;;;;;;;;;;;;;4.75;71.63;100765.91;5142898;27;26785;-79
2022/01/08 10:02:11;;;;;;;;;;;;;;;4.80;72.13;100759.06;5141023;27;45942;-79
2022/01/08 10:04:41;;;;;;;;;;;;;;;4.87;72.04;100750.53;5142894;27;55239;-79
2022/01/08 10:07:26;;;;;;;;;;;;;;;4.96;72.33;100734.28;5121682;27;27399;-79
2022/01/08 10:10:13;;;;;;;;;;;;;;;5.02;71.81;100723.19;5142973;27;26626;-80
2022/01/08 10:12:59;;;;;;;;;;;;;;;5.07;72.12;100729.13;5142438;27;27362;-80
2022/01/08 10:18:20;;;;;;;;;;;;;;;5.08;71.17;100725.72;5140501;27;26982;-80
2022/01/08 10:20:49;;;;;;;;;;;;;;;5.05;71.16;100723.19;5123656;27;27496;-80
2022/01/08 10:23:20;;;;;;;;;;;;;;;5.01;71.33;100716.38;5142036;27;26712;-80
2022/01/08 10:25:56;;;;;;;;;;;;;;;4.94;71.36;100709.56;5141769;27;26969;-80
2022/01/08 10:28:40;;;;;;;;;;;;;;;4.90;70.82;100708.75;5141812;27;27985;-79
2022/01/08 10:31:05;;;;;;;;;;;;;;;4.86;71.03;100707.03;5141725;27;26787;-80
2022/01/08 10:33:31;;;;;;;;;;;;;;;4.85;71.31;100708.75;5145165;27;26886;-80
2022/01/08 10:35:56;;;;;;;;;;;;;;;4.87;71.95;100699.34;5143884;27;55238;-80
2022/01/08 10:38:21;;;;;;;;;;;;;;;4.93;71.46;100685.69;5143206;27;56036;-80
2022/01/08 10:40:46;;;;;;;;;;;;;;;4.95;72.24;100685.69;5144009;27;27913;-80
2022/01/08 10:43:23;;;;;;;;;;;;;;;4.93;71.59;100672.03;5143396;27;35847;-80
2022/01/08 10:45:48;;;;;;;;;;;;;;;4.93;71.95;100661.81;5134881;27;26707;-80
2022/01/08 10:48:23;;;;;;;;;;;;;;;5.01;72.04;100649.81;5142789;27;26892;-80
2022/01/08 10:50:49;;;;;;;;;;;;;;;5.07;71.97;100647.22;5141572;27;26946;-80
2022/01/08 10:53:15;;;;;;;;;;;;;;;5.10;72.63;100629.31;5142258;27;27643;-80
2022/01/08 10:55:41;;;;;;;;;;;;;;;5.13;71.55;100645.50;5141426;27;54214;-80
2022/01/08 10:58:07;;;;;;;;;;;;;;;5.17;72.73;100651.47;5142232;27;26855;-81
2022/01/08 11:00:32;;;;;;;;;;;;;;;5.24;72.21;100653.97;5144775;27;39959;-80
2022/01/08 11:02:57;;;;;;;;;;;;;;;5.33;72.68;100653.06;5145613;27;27003;-80
2022/01/08 11:05:22;;;;;;;;;;;;;;;5.39;72.10;100647.06;5142281;27;26479;-80
2022/01/08 11:07:48;;;;;;;;;;;;;;;5.44;72.54;100635.03;5141757;27;26532;-78
2022/01/08 11:10:25;;;;;;;;;;;;;;;5.49;71.85;100631.59;5140356;27;51377;-80
2022/01/08 11:12:51;;;;;;;;;;;;;;;5.53;72.27;100615.38;5136474;27;26719;-80
2022/01/08 11:17:56;;;;;;;;;;;;;;;5.60;71.61;100596.50;5137569;27;26972;-80
2022/01/08 11:20:23;;;;;;;;;;;;;;;5.62;71.81;100589.69;5073818;28;26801;-81
2022/01/08 11:22:51;;;;;;;;;;;;;;;5.64;71.30;100593.06;5074135;28;27066;-79
2022/01/08 11:25:28;;;;;;;;;;;;;;;5.65;71.56;100584.53;5074350;28;26948;-80
2022/01/08 11:28:00;;;;;;;;;;;;;;;5.66;71.75;100586.22;5074914;28;26872;-80
2022/01/08 11:30:32;;;;;;;;;;;;;;;5.70;71.63;100582.75;5075594;28;26988;-80
2022/01/08 11:33:08;;;;;;;;;;;;;;;5.70;71.56;100577.63;5062151;28;27047;-80
2022/01/08 11:35:36;;;;;;;;;;;;;;;5.73;71.50;100572.50;5081090;28;26556;-79
2022/01/08 11:38:04;;;;;;;;;;;;;;;5.76;71.72;100577.59;5081541;28;26983;-79
2022/01/08 11:40:29;;;;;;;;;;;;;;;5.81;71.81;100555.31;5074424;28;26981;-80
2022/01/08 11:42:58;;;;;;;;;;;;;;;5.85;71.60;100554.44;5073280;28;27120;-80
2022/01/08 11:45:28;;;;;;;;;;;;;;;5.65;70.97;100523.03;5055797;28;27048;-80
2022/01/08 11:47:55;;;;;;;;;;;;;;;5.88;71.95;100551.03;5073186;28;27616;-80
2022/01/08 11:50:22;;;;;;;;;;;;;;;5.92;70.94;100544.16;5077038;27;26853;-79
2022/01/08 11:53:07;;;;;;;;;;;;;;;5.92;71.07;100546.72;5137793;27;28088;-80
2022/01/08 11:55:35;;;;;;;;;;;;;;;5.94;71.65;100530.47;5137390;27;26799;-80
2022/01/08 11:58:19;;;;;;;;;;;;;;;5.96;71.40;100517.63;5138398;27;27033;-80
2022/01/08 12:00:47;;;;;;;;;;;;;;;6.00;71.58;100503.94;5137210;27;26816;-80
2022/01/08 12:03:20;;;;;;;;;;;;;;;6.01;70.79;100500.47;5139570;27;26978;-80
2022/01/08 12:05:45;;;;;;;;;;;;;;;6.05;70.44;100497.00;5141735;27;26897;-79
2022/01/08 12:08:14;;;;;;;;;;;;;;;6.06;71.07;100488.47;5141872;27;27022;-79
2022/01/08 12:10:51;;;;;;;;;;;;;;;6.07;71.17;100479.91;5122620;27;26989;-79
2022/01/08 12:13:37;;;;;;;;;;;;;;;6.08;71.06;100471.34;5141788;27;26974;-80
2022/01/08 12:16:02;;;;;;;;;;;;;;;6.13;70.79;100464.44;5120902;27;27044;-79
2022/01/08 12:18:47;;;;;;;;;;;;;;;6.20;71.40;100460.94;5140265;27;27493;-79
2022/01/08 12:21:28;;;;;;;;;;;;;;;6.23;70.86;100442.94;5138666;27;27462;-80
2022/01/08 12:23:53;;;;;;;;;;;;;;;6.26;70.66;100430.09;5139464;27;27245;-79
2022/01/08 12:26:19;;;;;;;;;;;;;;;6.26;70.18;100424.97;5139682;27;54290;-79
2022/01/08 12:28:53;;;;;;;;;;;;;;;6.28;70.72;100412.97;5139532;27;57496;-79
2022/01/08 12:31:21;;;;;;;;;;;;;;;6.32;70.71;100409.50;5141248;27;26853;-80
2022/01/08 12:33:46;;;;;;;;;;;;;;;6.33;70.58;100406.06;5141599;27;26994;-80
2022/01/08 12:36:32;;;;;;;;;;;;;;;6.33;70.36;100406.06;5141443;27;26830;-80
2022/01/08 12:39:03;;;;;;;;;;;;;;;6.36;70.39;100389.78;5141379;27;26871;-80
2022/01/08 12:41:28;;;;;;;;;;;;;;;6.39;70.82;100385.44;5141346;27;26962;-80
2022/01/08 12:43:54;;;;;;;;;;;;;;;6.41;70.03;100381.13;5085741;27;26932;-80
2022/01/08 12:46:22;;;;;;;;;;;;;;;6.43;70.48;100376.84;5139063;27;54588;-80
2022/01/08 12:49:06;;;;;;;;;;;;;;;6.45;70.68;100369.94;5139440;27;26873;-79
2022/01/08 12:51:49;;;;;;;;;;;;;;;6.47;70.41;100352.84;5139772;27;26878;-79
2022/01/08 12:54:19;;;;;;;;;;;;;;;6.50;70.15;100346.81;5140723;27;26839;-79
2022/01/08 12:56:48;;;;;;;;;;;;;;;6.43;69.92;100325.53;5142921;27;27295;-79
2022/01/08 12:59:14;;;;;;;;;;;;;;;6.53;70.00;100332.22;5144663;27;26906;-79
2022/01/08 13:01:40;;;;;;;;;;;;;;;6.55;70.20;100325.34;5112189;27;26946;-78
2022/01/08 13:04:14;;;;;;;;;;;;;;;6.57;69.79;100313.31;5149776;27;26817;-78
2022/01/08 13:06:40;;;;;;;;;;;;;;;6.62;69.93;100308.97;5148057;27;26921;-79
2022/01/08 13:09:06;;;;;;;;;;;;;;;6.67;69.47;100299.47;5147723;27;26981;-78
2022/01/08 13:11:32;;;;;;;;;;;;;;;6.70;69.76;100291.75;5148694;27;26997;-78